Time;durP1;ratioP1;P1;durP2;ratioP2;P2;SDS_P1;SDS_P2;PMS_P1;PMS_P2;Temp;Humidity;BMP_temperature;BMP_pressure;BME280_temperature;BME280_humidity;BME280_pressure;Samples;Min_cycle;Max_cycle;Signal;HPM_P1;HPM_P2
2021/08/01 00:02:11;;;;;;;2.15;1.92;;;16.80;99.90;;;;;;5013133;28;20046;-75
2021/08/01 00:04:38;;;;;;;3.63;2.30;;;16.80;99.90;;;;;;5013052;28;20576;-75
2021/08/01 00:07:05;;;;;;;2.90;2.25;;;16.80;99.90;;;;;;5013053;28;20458;-74
2021/08/01 00:09:32;;;;;;;4.75;2.47;;;16.70;99.90;;;;;;5012237;28;20101;-75
2021/08/01 00:11:59;;;;;;;2.45;2.25;;;16.70;99.90;;;;;;5013086;28;20050;-74
2021/08/01 00:14:25;;;;;;;2.60;2.40;;;16.70;99.90;;;;;;5027056;28;20053;-74
2021/08/01 00:16:52;;;;;;;2.92;2.28;;;16.60;99.90;;;;;;5023170;28;20080;-75
2021/08/01 00:19:20;;;;;;;3.75;2.28;;;16.60;99.90;;;;;;5012170;28;20042;-74
2021/08/01 00:21:47;;;;;;;3.85;2.28;;;16.50;99.90;;;;;;5013746;28;20096;-75
2021/08/01 00:24:13;;;;;;;4.15;1.98;;;16.60;99.90;;;;;;5013557;28;20045;-74
2021/08/01 00:26:40;;;;;;;2.17;1.92;;;16.60;99.90;;;;;;5012441;28;20057;-74
2021/08/01 00:29:07;;;;;;;3.40;2.45;;;16.50;99.90;;;;;;5012300;28;20498;-75
2021/08/01 00:31:33;;;;;;;2.60;2.40;;;16.50;99.90;;;;;;5013558;28;20046;-77
2021/08/01 00:34:00;;;;;;;2.47;2.28;;;16.40;99.90;;;;;;5012652;28;20045;-75
2021/08/01 00:36:28;;;;;;;4.30;2.38;;;16.40;99.90;;;;;;5012468;28;20104;-75
2021/08/01 00:38:54;;;;;;;2.28;2.00;;;16.30;99.90;;;;;;5011689;28;20042;-75
2021/08/01 00:41:21;;;;;;;2.72;2.53;;;16.20;99.90;;;;;;5013044;28;20050;-74
2021/08/01 00:43:47;;;;;;;2.92;2.60;;;16.20;99.90;;;;;;5021417;28;20042;-75
2021/08/01 00:46:17;;;;;;;2.55;2.35;;;16.20;99.90;;;;;;5033906;28;20053;-75
2021/08/01 00:48:44;;;;;;;2.85;2.55;;;16.10;99.90;;;;;;5024518;28;20104;-76
2021/08/01 00:51:10;;;;;;;2.97;2.70;;;16.10;99.90;;;;;;5014450;28;20092;-74
2021/08/01 00:53:38;;;;;;;2.50;2.30;;;16.10;99.90;;;;;;5019769;28;20049;-74
2021/08/01 00:56:05;;;;;;;2.50;2.30;;;16.10;99.90;;;;;;5013579;28;20050;-75
2021/08/01 00:58:32;;;;;;;2.60;2.28;;;15.90;99.90;;;;;;5015053;28;20054;-75
2021/08/01 01:01:10;;;;;;;4.40;2.40;;;15.80;99.90;;;;;;5014760;28;20054;-74
2021/08/01 01:03:59;;;;;;;2.75;2.55;;;15.70;99.90;;;;;;5014684;28;20045;-78
2021/08/01 01:06:34;;;;;;;3.70;2.60;;;15.60;99.90;;;;;;5014379;28;20046;-76
2021/08/01 01:09:07;;;;;;;2.50;2.30;;;15.60;99.90;;;;;;5013463;28;20057;-76
2021/08/01 01:11:38;;;;;;;2.40;2.20;;;15.70;99.90;;;;;;5014418;28;20050;-79
2021/08/01 01:14:07;;;;;;;2.22;2.13;;;15.80;99.90;;;;;;5014447;28;20046;-73
2021/08/01 01:16:43;;;;;;;3.70;2.45;;;16.00;99.90;;;;;;5015729;28;20469;-77
2021/08/01 01:19:14;;;;;;;2.03;1.83;;;15.80;99.90;;;;;;5014472;28;20050;-75
2021/08/01 01:22:00;;;;;;;2.03;1.93;;;15.80;99.90;;;;;;5016683;28;20107;-75
2021/08/01 01:24:33;;;;;;;2.65;2.45;;;15.70;99.90;;;;;;5015371;28;20292;-74
2021/08/01 01:27:12;;;;;;;3.08;2.88;;;15.70;99.90;;;;;;5015415;28;20046;-74
2021/08/01 01:29:44;;;;;;;3.17;2.28;;;15.50;99.90;;;;;;5014346;28;20042;-75
2021/08/01 01:32:18;;;;;;;3.03;2.83;;;15.50;99.90;;;;;;5015737;28;20057;-77
2021/08/01 01:34:53;;;;;;;3.92;2.63;;;15.40;99.90;;;;;;5020377;28;20168;-77
2021/08/01 01:37:22;;;;;;;3.50;3.17;;;15.50;99.90;;;;;;5011622;28;20050;-77
2021/08/01 01:39:49;;;;;;;4.20;2.90;;;15.50;99.90;;;;;;5011265;28;20100;-76
2021/08/01 01:42:18;;;;;;;2.38;2.17;;;15.50;99.90;;;;;;5015671;28;20053;-77
2021/08/01 01:44:46;;;;;;;2.60;2.38;;;15.60;99.90;;;;;;5017293;28;20065;-74
2021/08/01 01:47:15;;;;;;;3.33;2.85;;;15.40;99.90;;;;;;5011737;28;20042;-74
2021/08/01 01:49:43;;;;;;;3.03;2.83;;;15.30;99.90;;;;;;5028009;28;20057;-75
2021/08/01 01:52:11;;;;;;;3.53;2.42;;;15.10;99.90;;;;;;5032043;28;20387;-75
2021/08/01 01:54:39;;;;;;;3.50;2.72;;;15.10;99.90;;;;;;5035291;28;20132;-75
2021/08/01 01:57:07;;;;;;;3.72;2.55;;;15.20;99.90;;;;;;5019546;28;20045;-77
2021/08/01 01:59:34;;;;;;;2.63;2.42;;;15.20;99.90;;;;;;5014851;28;20046;-77
2021/08/01 02:02:00;;;;;;;3.10;2.80;;;15.20;99.90;;;;;;5015386;28;20556;-76
2021/08/01 02:04:27;;;;;;;3.75;2.85;;;15.20;99.90;;;;;;5015045;28;20104;-76
2021/08/01 02:06:54;;;;;;;3.35;2.70;;;15.20;99.90;;;;;;5020811;28;20053;-77
2021/08/01 02:09:29;;;;;;;2.95;2.55;;;15.20;99.90;;;;;;5030607;28;20099;-76
2021/08/01 02:12:04;;;;;;;2.78;2.35;;;15.20;99.90;;;;;;5034843;28;20045;-75
2021/08/01 02:14:37;;;;;;;3.47;3.17;;;15.10;99.90;;;;;;5034510;28;20200;-74
2021/08/01 02:17:07;;;;;;;3.50;2.97;;;15.20;99.90;;;;;;5034796;28;20053;-75
2021/08/01 02:19:35;;;;;;;2.78;2.58;;;15.10;99.90;;;;;;5034082;28;20100;-74
2021/08/01 02:22:03;;;;;;;4.88;2.80;;;14.90;99.90;;;;;;5026905;28;20046;-75
2021/08/01 02:24:31;;;;;;;3.28;3.08;;;14.90;99.90;;;;;;5015387;28;20050;-75
2021/08/01 02:27:00;;;;;;;3.50;2.90;;;14.90;99.90;;;;;;5020439;28;20099;-73
2021/08/01 02:29:28;;;;;;;2.67;2.45;;;14.90;99.90;;;;;;5014244;28;20104;-75
2021/08/01 02:31:55;;;;;;;4.40;3.28;;;14.90;99.90;;;;;;5014884;28;20042;-75
2021/08/01 02:34:23;;;;;;;2.42;2.22;;;14.90;99.90;;;;;;5014861;28;20100;-75
2021/08/01 02:36:52;;;;;;;4.68;2.70;;;15.00;99.90;;;;;;5014980;28;20042;-74
2021/08/01 02:39:20;;;;;;;3.05;2.85;;;14.90;99.90;;;;;;5014159;28;20093;-75
2021/08/01 02:41:47;;;;;;;4.88;3.15;;;14.90;99.90;;;;;;5014528;28;20050;-76
2021/08/01 02:44:18;;;;;;;3.45;2.92;;;14.90;99.90;;;;;;5014664;28;20096;-76
2021/08/01 02:46:46;;;;;;;3.30;3.00;;;15.00;99.90;;;;;;5014661;28;20049;-77
2021/08/01 02:49:20;;;;;;;2.90;2.70;;;14.90;99.90;;;;;;5024366;28;20045;-76
2021/08/01 02:51:51;;;;;;;3.40;2.53;;;15.00;99.90;;;;;;5014519;28;20224;-76
2021/08/01 02:54:18;;;;;;;3.92;2.78;;;14.90;99.90;;;;;;5014622;28;20053;-74
2021/08/01 02:56:45;;;;;;;5.10;3.08;;;14.90;99.90;;;;;;5021655;28;20119;-76
2021/08/01 02:59:13;;;;;;;2.75;2.55;;;15.00;99.90;;;;;;5033603;28;20049;-77
2021/08/01 03:01:42;;;;;;;3.25;2.95;;;14.90;99.90;;;;;;5033170;28;20045;-77
2021/08/01 03:04:09;;;;;;;3.45;3.15;;;14.90;99.90;;;;;;5033824;28;20091;-77
2021/08/01 03:06:36;;;;;;;3.58;3.38;;;14.90;99.90;;;;;;5032326;28;20045;-78
2021/08/01 03:09:04;;;;;;;3.40;3.10;;;14.90;99.90;;;;;;5033079;28;20559;-75
2021/08/01 03:11:34;;;;;;;3.50;3.20;;;15.00;99.90;;;;;;5017335;28;20053;-74
2021/08/01 03:14:00;;;;;;;3.35;3.05;;;14.90;99.90;;;;;;5013995;28;20058;-75
2021/08/01 03:16:27;;;;;;;2.88;2.67;;;14.90;99.90;;;;;;5014201;28;20046;-74
2021/08/01 03:18:55;;;;;;;3.75;2.85;;;14.90;99.90;;;;;;5013312;28;20422;-75
2021/08/01 03:21:22;;;;;;;3.53;3.15;;;14.90;99.90;;;;;;5014693;28;20089;-77
2021/08/01 03:23:48;;;;;;;4.45;3.55;;;15.00;99.90;;;;;;5028779;28;20049;-75
2021/08/01 03:26:15;;;;;;;7.05;3.38;;;14.90;99.90;;;;;;5028638;28;20543;-74
2021/08/01 03:28:42;;;;;;;3.53;3.22;;;14.80;99.90;;;;;;5017386;28;20053;-75
2021/08/01 03:31:09;;;;;;;3.20;3.00;;;14.90;99.90;;;;;;5015358;28;20404;-75
2021/08/01 03:33:35;;;;;;;3.42;3.13;;;14.90;99.90;;;;;;5013763;28;20046;-74
2021/08/01 03:36:04;;;;;;;3.95;3.33;;;14.80;99.90;;;;;;5013572;28;20478;-74
2021/08/01 03:38:31;;;;;;;4.53;2.85;;;14.80;99.90;;;;;;5012789;28;20438;-74
2021/08/01 03:40:57;;;;;;;4.05;3.63;;;14.80;99.90;;;;;;5028914;28;20045;-74
2021/08/01 03:43:24;;;;;;;3.30;3.00;;;14.80;99.90;;;;;;5031654;28;20051;-75
2021/08/01 03:45:50;;;;;;;3.90;3.53;;;14.80;99.90;;;;;;5032872;28;20056;-75
2021/08/01 03:48:17;;;;;;;4.15;3.75;;;14.80;99.90;;;;;;5032180;28;20053;-75
2021/08/01 03:50:44;;;;;;;3.72;3.42;;;14.70;99.90;;;;;;5032876;28;20080;-75
2021/08/01 03:53:11;;;;;;;5.90;4.00;;;14.70;99.90;;;;;;5014535;28;20426;-77
2021/08/01 03:55:38;;;;;;;4.07;3.67;;;14.60;99.90;;;;;;5026350;28;20041;-78
2021/08/01 03:58:05;;;;;;;4.82;3.58;;;14.70;99.90;;;;;;5013171;28;20050;-77
2021/08/01 04:00:31;;;;;;;5.10;3.25;;;14.70;99.90;;;;;;5012706;28;20052;-78
2021/08/01 04:02:58;;;;;;;4.65;3.50;;;14.80;99.90;;;;;;5032592;28;20049;-76
2021/08/01 04:05:24;;;;;;;3.40;3.10;;;14.80;99.90;;;;;;5032709;28;20100;-78
2021/08/01 04:07:51;;;;;;;3.38;3.08;;;14.90;99.90;;;;;;5014200;28;20495;-77
2021/08/01 04:10:19;;;;;;;5.07;3.88;;;14.90;99.90;;;;;;5028584;28;20417;-77
2021/08/01 04:12:45;;;;;;;5.50;4.22;;;14.90;99.90;;;;;;5032367;28;20061;-77
2021/08/01 04:15:13;;;;;;;4.10;3.80;;;14.90;99.90;;;;;;5031390;28;20045;-77
2021/08/01 04:17:40;;;;;;;5.55;4.82;;;14.90;99.90;;;;;;5031072;28;20057;-77
2021/08/01 04:20:08;;;;;;;6.78;5.45;;;15.00;99.90;;;;;;5013265;28;20042;-75
2021/08/01 04:22:34;;;;;;;10.02;6.28;;;15.00;99.90;;;;;;5012805;28;20057;-75
2021/08/01 04:25:01;;;;;;;7.22;4.60;;;15.00;99.90;;;;;;5012749;28;20041;-76
2021/08/01 04:27:29;;;;;;;7.68;5.60;;;15.00;99.90;;;;;;5028766;28;20119;-76
2021/08/01 04:29:56;;;;;;;6.05;4.30;;;15.10;99.90;;;;;;5031364;28;20096;-76
2021/08/01 04:32:22;;;;;;;3.80;3.30;;;15.20;99.90;;;;;;5022532;28;20042;-76
2021/08/01 04:34:49;;;;;;;5.65;3.58;;;15.30;99.90;;;;;;5012543;28;20050;-81
2021/08/01 04:37:15;;;;;;;3.50;3.22;;;15.30;99.90;;;;;;5012815;28;20049;-76
2021/08/01 04:39:42;;;;;;;14.20;8.90;;;15.20;99.90;;;;;;5014381;28;20054;-75
2021/08/01 04:42:09;;;;;;;4.43;3.85;;;15.30;99.90;;;;;;5012503;28;20072;-75
2021/08/01 04:44:37;;;;;;;13.50;8.38;;;15.30;99.90;;;;;;5022035;28;20453;-75
2021/08/01 04:47:03;;;;;;;3.92;3.03;;;15.30;99.90;;;;;;5026265;28;20112;-76
2021/08/01 04:49:30;;;;;;;3.45;3.15;;;15.30;99.90;;;;;;5014129;28;20046;-75
2021/08/01 04:51:56;;;;;;;11.35;5.95;;;15.40;99.90;;;;;;5032110;28;20176;-76
2021/08/01 04:54:23;;;;;;;55.20;27.30;;;15.40;99.90;;;;;;5031596;28;20054;-75
2021/08/01 04:56:50;;;;;;;13.45;7.72;;;15.50;99.90;;;;;;5014242;28;20046;-75
2021/08/01 04:59:17;;;;;;;10.95;5.80;;;15.60;99.90;;;;;;5024703;28;20072;-75
2021/08/01 05:01:47;;;;;;;15.25;8.75;;;15.70;99.90;;;;;;5031442;28;20053;-77
2021/08/01 05:04:14;;;;;;;4.68;3.83;;;15.70;99.90;;;;;;5027458;28;20049;-75
2021/08/01 05:06:40;;;;;;;4.63;3.97;;;15.70;99.90;;;;;;5027508;28;20053;-76
2021/08/01 05:09:07;;;;;;;5.78;4.10;;;15.80;99.90;;;;;;5011429;28;20100;-75
2021/08/01 05:11:34;;;;;;;7.93;4.65;;;15.80;99.90;;;;;;5012123;28;20119;-75
2021/08/01 05:14:00;;;;;;;4.82;3.45;;;15.80;99.90;;;;;;5011726;28;20046;-74
2021/08/01 05:16:27;;;;;;;4.43;3.83;;;15.80;99.90;;;;;;5030134;28;20103;-76
2021/08/01 05:18:55;;;;;;;6.10;4.45;;;15.90;99.90;;;;;;5012701;28;20057;-76
2021/08/01 05:21:22;;;;;;;5.55;3.70;;;15.80;99.90;;;;;;5011858;28;20050;-76
2021/08/01 05:23:50;;;;;;;22.80;12.82;;;16.00;99.90;;;;;;5014817;28;20549;-75
2021/08/01 05:26:16;;;;;;;4.88;3.33;;;16.00;99.90;;;;;;5037232;28;20068;-75
2021/08/01 05:28:43;;;;;;;6.68;4.68;;;16.10;99.90;;;;;;5017687;28;20123;-75
2021/08/01 05:31:10;;;;;;;10.63;6.35;;;16.10;99.90;;;;;;5018549;28;20100;-75
2021/08/01 05:33:36;;;;;;;7.18;6.00;;;16.10;99.90;;;;;;5027622;28;20095;-75
2021/08/01 05:36:07;;;;;;;18.50;11.25;;;16.30;99.90;;;;;;5037888;28;20091;-75
2021/08/01 05:38:34;;;;;;;17.70;11.57;;;16.40;99.90;;;;;;5037712;28;20053;-76
2021/08/01 05:41:00;;;;;;;8.80;6.35;;;16.40;99.90;;;;;;5022996;28;20095;-76
2021/08/01 05:43:27;;;;;;;6.60;4.20;;;16.50;99.90;;;;;;5038110;28;20096;-75
2021/08/01 05:45:54;;;;;;;5.53;3.38;;;16.60;99.90;;;;;;5034524;28;20045;-77
2021/08/01 05:48:21;;;;;;;4.18;3.67;;;16.60;99.90;;;;;;5021441;28;20041;-76
2021/08/01 05:50:47;;;;;;;12.68;7.32;;;16.70;99.90;;;;;;5034890;28;20045;-76
2021/08/01 05:53:20;;;;;;;4.25;3.15;;;16.70;99.90;;;;;;5031123;28;20057;-75
2021/08/01 05:55:47;;;;;;;3.58;3.08;;;16.90;99.90;;;;;;5026912;28;20046;-75
2021/08/01 05:58:13;;;;;;;7.55;5.05;;;16.90;99.90;;;;;;5021682;28;20083;-74
2021/08/01 06:00:40;;;;;;;15.10;8.68;;;17.00;99.90;;;;;;5033745;28;20057;-74
2021/08/01 06:03:06;;;;;;;4.93;4.43;;;17.10;99.90;;;;;;5018220;28;20050;-76
2021/08/01 06:05:33;;;;;;;11.07;6.53;;;17.20;99.90;;;;;;5036997;28;20102;-75
2021/08/01 06:08:00;;;;;;;6.78;3.95;;;17.30;99.90;;;;;;5036088;28;20107;-76
2021/08/01 06:10:28;;;;;;;5.97;4.40;;;17.30;99.90;;;;;;5036700;28;20563;-74
2021/08/01 06:12:54;;;;;;;9.25;5.88;;;17.50;99.90;;;;;;5033939;28;20123;-76
2021/08/01 06:15:21;;;;;;;3.10;2.90;;;17.60;99.90;;;;;;5018077;28;20045;-78
2021/08/01 06:17:48;;;;;;;3.60;3.17;;;17.50;99.90;;;;;;5018021;28;20561;-77
2021/08/01 06:20:14;;;;;;;5.35;3.75;;;17.50;99.90;;;;;;5021677;28;20045;-78
2021/08/01 06:22:41;;;;;;;3.88;3.47;;;17.60;99.90;;;;;;5037469;28;20049;-79
2021/08/01 06:25:08;;;;;;;4.90;2.80;;;17.70;99.90;;;;;;5037371;28;20543;-77
2021/08/01 06:27:36;;;;;;;4.97;4.07;;;17.60;99.90;;;;;;5036247;28;20136;-76
2021/08/01 06:30:04;;;;;;;4.30;3.22;;;17.60;99.90;;;;;;5037311;28;20045;-75
2021/08/01 06:32:30;;;;;;;4.30;3.95;;;17.90;99.90;;;;;;5035176;28;20048;-75
2021/08/01 06:34:57;;;;;;;4.75;3.58;;;17.70;99.90;;;;;;5035548;28;20053;-75
2021/08/01 06:37:24;;;;;;;4.78;4.28;;;17.80;99.90;;;;;;5033778;28;20049;-75
2021/08/01 06:39:50;;;;;;;5.25;3.50;;;17.80;99.90;;;;;;5030018;28;20457;-77
2021/08/01 06:42:17;;;;;;;5.45;4.35;;;18.00;99.90;;;;;;5014776;28;20096;-78
2021/08/01 06:44:46;;;;;;;5.28;4.22;;;18.00;99.90;;;;;;5014974;28;20115;-77
2021/08/01 06:47:13;;;;;;;4.05;3.08;;;18.10;99.90;;;;;;5029061;28;20045;-77
2021/08/01 06:49:39;;;;;;;27.23;17.27;;;18.20;99.90;;;;;;5014085;28;20042;-78
2021/08/01 06:52:08;;;;;;;57.05;31.50;;;18.20;99.90;;;;;;5028521;28;20552;-78
2021/08/01 06:54:34;;;;;;;5.93;3.95;;;18.30;99.90;;;;;;5015673;28;20112;-80
2021/08/01 06:57:01;;;;;;;4.80;3.00;;;18.40;99.90;;;;;;5022777;28;20457;-74
2021/08/01 06:59:29;;;;;;;4.28;3.25;;;18.20;99.90;;;;;;5020433;28;20062;-77
2021/08/01 07:01:57;;;;;;;3.63;3.22;;;18.10;99.90;;;;;;5016947;28;20136;-79
2021/08/01 07:04:24;;;;;;;4.55;3.97;;;18.20;99.90;;;;;;4981785;28;20046;-78
2021/08/01 07:06:55;;;;;;;5.72;4.03;;;18.10;99.90;;;;;;5023812;28;20104;-84
2021/08/01 07:09:22;;;;;;;8.10;5.50;;;18.10;99.90;;;;;;5019815;28;20045;-83
2021/08/01 07:11:49;;;;;;;6.78;3.90;;;18.30;99.90;;;;;;5024116;28;20045;-82
2021/08/01 07:14:15;;;;;;;5.18;2.78;;;18.20;99.90;;;;;;5019026;28;20054;-81
2021/08/01 07:19:53;;;;;;;5.63;3.83;;;18.00;99.90;;;;;;5017529;28;20075;-76
2021/08/01 07:22:20;;;;;;;7.78;5.47;;;18.20;99.90;;;;;;5026848;28;21219;-79
2021/08/01 07:24:46;;;;;;;3.35;3.05;;;18.40;99.90;;;;;;5018988;28;20053;-77
2021/08/01 07:27:13;;;;;;;3.50;3.13;;;18.40;99.90;;;;;;5034784;28;20049;-78
2021/08/01 07:29:40;;;;;;;3.97;2.63;;;18.60;99.90;;;;;;5029754;28;20104;-84
2021/08/01 07:32:07;;;;;;;5.45;3.88;;;18.70;99.90;;;;;;5029469;28;20034;-76
2021/08/01 07:34:33;;;;;;;10.90;4.95;;;18.90;99.90;;;;;;5031498;28;20600;-79
2021/08/01 07:37:01;;;;;;;10.10;6.25;;;19.00;99.90;;;;;;5037496;28;20034;-77
2021/08/01 07:39:28;;;;;;;6.53;4.57;;;19.20;99.90;;;;;;5045225;28;20053;-83
2021/08/01 07:41:55;;;;;;;5.45;3.90;;;19.50;99.90;;;;;;5039903;28;20387;-69
2021/08/01 07:44:24;;;;;;;18.40;9.85;;;19.70;99.90;;;;;;5023074;28;20120;-75
2021/08/01 07:46:50;;;;;;;4.90;3.85;;;20.10;99.90;;;;;;5036159;28;20045;-80
2021/08/01 07:49:17;;;;;;;3.45;3.15;;;20.30;99.90;;;;;;5034766;28;20095;-79
2021/08/01 07:51:43;;;;;;;4.95;3.30;;;19.90;99.90;;;;;;5018203;28;20049;-80
2021/08/01 07:54:11;;;;;;;5.40;4.68;;;19.70;99.90;;;;;;5018514;28;20045;-79
2021/08/01 07:56:38;;;;;;;4.10;3.70;;;20.10;99.90;;;;;;5018048;28;20042;-80
2021/08/01 07:59:04;;;;;;;4.90;2.95;;;20.40;99.90;;;;;;5018285;28;20058;-80
2021/08/01 08:01:31;;;;;;;3.15;2.85;;;20.60;99.90;;;;;;5019150;28;20050;-80
2021/08/01 08:03:58;;;;;;;3.22;2.92;;;20.60;99.90;;;;;;5018528;28;20078;-79
2021/08/01 08:06:24;;;;;;;4.88;3.17;;;21.10;99.90;;;;;;5018316;28;20108;-79
2021/08/01 08:08:51;;;;;;;4.50;2.88;;;21.50;99.90;;;;;;5018241;28;20552;-80
2021/08/01 08:11:19;;;;;;;2.58;2.38;;;21.40;99.90;;;;;;5019473;28;20049;-81
2021/08/01 08:13:45;;;;;;;4.53;3.22;;;21.40;99.90;;;;;;5017793;28;20097;-80
2021/08/01 08:16:12;;;;;;;3.65;3.30;;;21.90;99.90;;;;;;5028082;28;20331;-80
2021/08/01 08:18:39;;;;;;;2.35;2.10;;;22.00;99.90;;;;;;5026476;28;20053;-79
2021/08/01 08:21:05;;;;;;;15.15;8.45;;;21.70;99.90;;;;;;5037564;28;20045;-79
2021/08/01 08:23:32;;;;;;;2.80;2.58;;;21.50;99.90;;;;;;5038548;28;20045;-78
2021/08/01 08:25:58;;;;;;;3.20;2.72;;;21.50;99.90;;;;;;5037993;28;20045;-78
2021/08/01 08:28:26;;;;;;;2.70;2.50;;;21.20;99.90;;;;;;5042439;28;20041;-80
2021/08/01 08:30:53;;;;;;;3.42;2.67;;;21.00;99.90;;;;;;5038653;28;20045;-78
2021/08/01 08:36:00;;;;;;;3.45;2.80;;;20.80;99.90;;;;;;5044821;28;20088;-80
2021/08/01 08:38:27;;;;;;;9.68;6.45;;;21.20;99.90;;;;;;5017738;28;20046;-80
2021/08/01 08:40:53;;;;;;;2.28;2.08;;;21.50;99.90;;;;;;5017414;28;20133;-79
2021/08/01 08:43:20;;;;;;;2.70;2.47;;;21.80;99.90;;;;;;5017669;28;20046;-79
2021/08/01 08:45:49;;;;;;;2.20;2.00;;;21.90;99.90;;;;;;5017073;28;20556;-79
2021/08/01 08:48:17;;;;;;;4.32;3.40;;;21.90;99.90;;;;;;5015970;28;20050;-79
2021/08/01 08:50:49;;;;;;;3.03;2.58;;;22.30;99.90;;;;;;5014738;28;20124;-78
2021/08/01 08:53:20;;;;;;;2.08;1.88;;;22.40;99.90;;;;;;5014025;28;20112;-78
2021/08/01 08:55:49;;;;;;;2.10;1.90;;;21.70;99.90;;;;;;5014726;28;20050;-79
2021/08/01 08:58:20;;;;;;;2.80;2.40;;;21.60;99.90;;;;;;5019267;28;20045;-78
2021/08/01 09:00:48;;;;;;;3.33;2.03;;;21.70;99.90;;;;;;5024288;28;20054;-78
2021/08/01 09:03:15;;;;;;;2.33;2.13;;;21.00;99.90;;;;;;5014631;28;20092;-78
2021/08/01 09:05:41;;;;;;;3.17;2.83;;;21.00;99.90;;;;;;5015298;28;20458;-78
2021/08/01 09:08:08;;;;;;;2.15;2.03;;;21.20;99.90;;;;;;5014641;28;20042;-79
2021/08/01 09:10:35;;;;;;;2.30;2.05;;;21.20;99.90;;;;;;5014597;28;20041;-79
2021/08/01 09:13:01;;;;;;;3.22;2.22;;;21.50;99.90;;;;;;5014890;28;20046;-79
2021/08/01 09:15:29;;;;;;;2.70;2.20;;;21.90;99.90;;;;;;5015057;28;20053;-79
2021/08/01 09:17:58;;;;;;;3.00;2.47;;;22.20;99.90;;;;;;5014203;28;20046;-80
2021/08/01 09:20:27;;;;;;;2.40;2.20;;;22.60;99.90;;;;;;5019337;28;20576;-79
2021/08/01 09:23:12;;;;;;;2.90;2.10;;;23.10;99.90;;;;;;5016434;28;20053;-80
2021/08/01 09:25:41;;;;;;;6.50;3.55;;;23.60;99.90;;;;;;5016391;28;20042;-80
2021/08/01 09:28:13;;;;;;;4.32;2.42;;;23.10;99.90;;;;;;5016239;28;20050;-80
2021/08/01 09:30:49;;;;;;;2.60;2.40;;;23.40;99.90;;;;;;5013894;28;20045;-79
2021/08/01 09:33:32;;;;;;;4.63;2.65;;;24.10;99.90;;;;;;5014680;28;20046;-79
2021/08/01 09:36:11;;;;;;;3.25;2.42;;;24.40;99.90;;;;;;5016176;28;20494;-79
2021/08/01 09:38:44;;;;;;;4.68;2.20;;;24.30;99.80;;;;;;5016322;28;20046;-79
2021/08/01 09:41:11;;;;;;;2.38;2.15;;;24.60;99.60;;;;;;5015470;28;20045;-79
2021/08/01 09:43:44;;;;;;;2.83;1.90;;;24.20;98.70;;;;;;5014742;28;20046;-79
2021/08/01 09:46:11;;;;;;;2.00;1.90;;;24.40;99.80;;;;;;5014981;28;20061;-80
2021/08/01 09:48:39;;;;;;;1.73;1.63;;;23.90;98.50;;;;;;5013868;28;20491;-80
2021/08/01 09:51:07;;;;;;;4.38;1.77;;;23.30;98.70;;;;;;5013971;28;20053;-79
2021/08/01 09:53:35;;;;;;;3.28;1.70;;;22.80;99.90;;;;;;5013504;28;20046;-78
2021/08/01 09:56:16;;;;;;;2.47;2.00;;;22.00;99.90;;;;;;5012897;28;20042;-78
2021/08/01 09:58:43;;;;;;;2.45;2.33;;;22.10;99.90;;;;;;5020628;28;20093;-79
2021/08/01 10:01:10;;;;;;;2.20;2.10;;;21.90;99.90;;;;;;5019678;28;20045;-79
2021/08/01 10:03:38;;;;;;;4.18;3.17;;;22.40;99.90;;;;;;5013128;28;20050;-80
2021/08/01 10:06:11;;;;;;;2.35;2.03;;;22.80;99.90;;;;;;5023629;28;20046;-79
2021/08/01 10:08:39;;;;;;;2.20;1.95;;;22.80;99.90;;;;;;5035196;28;20026;-82
2021/08/01 10:11:14;;;;;;;3.78;2.45;;;22.90;99.90;;;;;;5043589;28;20028;-78
2021/08/01 10:13:42;;;;;;;2.50;2.30;;;23.10;99.90;;;;;;5059995;28;20049;-77
2021/08/01 10:16:10;;;;;;;2.50;2.30;;;23.40;99.90;;;;;;5060286;28;20056;-78
2021/08/01 10:18:38;;;;;;;2.97;1.88;;;23.60;99.80;;;;;;5059660;28;20025;-79
2021/08/01 10:21:06;;;;;;;2.42;2.10;;;23.70;99.90;;;;;;5060069;28;20099;-79
2021/08/01 10:23:39;;;;;;;4.10;2.58;;;23.40;99.90;;;;;;5060105;28;20068;-81
2021/08/01 10:26:07;;;;;;;2.83;2.60;;;23.60;98.70;;;;;;5045610;28;20058;-79
2021/08/01 10:28:36;;;;;;;3.53;2.33;;;23.50;99.00;;;;;;5039382;28;20042;-81
2021/08/01 10:31:06;;;;;;;5.25;4.30;;;23.70;97.80;;;;;;5046332;28;20096;-78
2021/08/01 10:33:38;;;;;;;2.63;2.33;;;23.80;97.80;;;;;;5059239;28;20043;-77
2021/08/01 10:36:10;;;;;;;2.50;2.30;;;23.60;98.30;;;;;;5054962;28;20060;-77
2021/08/01 10:38:39;;;;;;;2.80;2.40;;;23.60;97.70;;;;;;5058016;28;20034;-78
2021/08/01 10:41:10;;;;;;;2.33;1.92;;;23.00;98.60;;;;;;5044501;28;20137;-78
2021/08/01 10:43:38;;;;;;;;;;;22.80;98.80;;;;;;5038715;28;20053;-79
2021/08/01 10:46:05;;;;;;;3.25;2.47;;;22.90;99.90;;;;;;5039717;28;19925;-79
2021/08/01 10:48:34;;;;;;;3.13;2.83;;;23.10;99.30;;;;;;5037544;28;20533;-78
2021/08/01 10:51:01;;;;;;;3.10;2.78;;;23.30;99.90;;;;;;5036333;28;20048;-79
2021/08/01 10:53:29;;;;;;;2.58;2.35;;;23.50;99.90;;;;;;5037263;28;20046;-79
2021/08/01 10:56:29;;;;;;;2.40;2.20;;;23.30;98.50;;;;;;5036743;28;20099;-79
2021/08/01 10:58:57;;;;;;;4.13;2.78;;;23.50;99.00;;;;;;5039095;28;20103;-80
2021/08/01 11:01:23;;;;;;;2.42;2.22;;;23.50;99.10;;;;;;5036916;28;20425;-78
2021/08/01 11:04:32;;;;;;;2.53;2.28;;;23.10;98.80;;;;;;5036329;28;20045;-78
2021/08/01 11:06:58;;;;;;;5.47;2.03;;;22.70;99.90;;;;;;5034428;28;20489;-78
2021/08/01 11:09:25;;;;;;;2.30;2.10;;;22.90;99.90;;;;;;5025516;28;20050;-78
2021/08/01 11:12:29;;;;;;;2.85;2.15;;;22.70;99.90;;;;;;5015709;28;20071;-78
2021/08/01 11:14:57;;;;;;;2.25;2.03;;;22.80;99.10;;;;;;5020533;28;20465;-79
2021/08/01 11:18:07;;;;;;;2.58;2.38;;;22.90;99.20;;;;;;5016541;28;20104;-78
2021/08/01 11:20:54;;;;;;;3.72;3.40;;;22.80;98.40;;;;;;5000632;28;20046;-79
2021/08/01 11:23:21;;;;;;;2.55;2.15;;;23.60;98.40;;;;;;5017221;28;20395;-79
2021/08/01 11:26:08;;;;;;;2.40;2.20;;;24.10;96.30;;;;;;5015962;28;20050;-79
2021/08/01 11:28:35;;;;;;;6.13;4.70;;;23.60;96.40;;;;;;5016690;28;20132;-79
2021/08/01 11:31:18;;;;;;;2.33;2.15;;;23.20;97.40;;;;;;5017047;28;20517;-78
2021/08/01 11:33:46;;;;;;;6.88;3.60;;;23.00;97.80;;;;;;5016425;28;20046;-80
2021/08/01 11:36:31;;;;;;;4.10;3.00;;;22.90;98.50;;;;;;5016828;28;20046;-79
2021/08/01 11:39:05;;;;;;;4.22;2.83;;;22.70;98.60;;;;;;5016326;28;20081;-78
2021/08/01 11:41:38;;;;;;;3.72;3.00;;;22.80;99.10;;;;;;5014909;28;20072;-78
2021/08/01 11:44:08;;;;;;;2.42;2.20;;;22.70;99.00;;;;;;5016011;28;20130;-78
2021/08/01 11:47:07;;;;;;;5.40;3.90;;;22.80;99.20;;;;;;5016452;28;20096;-79
2021/08/01 11:49:38;;;;;;;3.25;2.95;;;22.70;98.50;;;;;;5022493;28;20045;-79
2021/08/01 11:52:06;;;;;;;6.95;3.25;;;22.60;98.40;;;;;;5017979;28;20049;-78
2021/08/01 11:54:34;;;;;;;16.83;8.73;;;22.50;98.20;;;;;;5016693;28;20108;-78
2021/08/01 11:57:03;;;;;;;3.22;2.67;;;22.50;99.20;;;;;;5017473;28;20054;-79
2021/08/01 11:59:30;;;;;;;3.88;3.40;;;22.30;98.90;;;;;;5021420;28;20097;-78
2021/08/01 12:01:58;;;;;;;6.13;2.92;;;22.30;99.90;;;;;;5016785;28;20053;-79
2021/08/01 12:04:27;;;;;;;3.75;2.45;;;22.60;99.90;;;;;;5015971;28;20054;-80
2021/08/01 12:06:55;;;;;;;2.03;1.77;;;22.50;99.10;;;;;;5014953;28;20211;-78
2021/08/01 12:09:24;;;;;;;11.60;7.70;;;22.30;99.80;;;;;;5015507;28;20104;-79
2021/08/01 12:11:52;;;;;;;2.53;2.33;;;22.50;99.90;;;;;;5022681;28;20046;-80
2021/08/01 12:14:22;;;;;;;3.22;2.08;;;23.00;99.90;;;;;;5023647;28;20100;-79
2021/08/01 12:16:58;;;;;;;4.23;1.83;;;23.40;97.90;;;;;;5022152;28;20050;-78
2021/08/01 12:19:27;;;;;;;2.00;1.80;;;23.30;96.80;;;;;;5016210;28;20057;-79
2021/08/01 12:21:57;;;;;;;5.18;4.38;;;23.40;96.60;;;;;;5016380;28;20041;-79
2021/08/01 12:24:33;;;;;;;2.75;2.55;;;23.40;97.10;;;;;;5029939;28;20703;-78
2021/08/01 12:27:01;;;;;;;2.53;2.33;;;23.30;96.10;;;;;;5035549;28;20053;-78
2021/08/01 12:29:33;;;;;;;3.72;2.40;;;23.30;97.00;;;;;;5034272;28;20045;-78
2021/08/01 12:35:10;;;;;;;3.45;3.03;;;23.10;97.40;;;;;;5035557;28;20061;-79
2021/08/01 12:37:43;;;;;;;2.92;2.63;;;23.20;98.10;;;;;;5016242;28;20045;-78
2021/08/01 12:40:11;;;;;;;2.20;2.10;;;23.80;96.90;;;;;;5015474;28;20045;-81
2021/08/01 12:42:49;;;;;;;3.42;3.13;;;24.70;97.80;;;;;;5013454;28;20050;-80
2021/08/01 12:45:16;;;;;;;5.80;3.92;;;25.20;92.80;;;;;;5013213;28;20483;-79
2021/08/01 12:47:43;;;;;;;3.30;1.95;;;25.00;93.10;;;;;;5013159;28;20049;-77
2021/08/01 12:50:12;;;;;;;2.50;1.92;;;24.60;92.90;;;;;;5012773;28;20053;-77
2021/08/01 12:52:39;;;;;;;8.27;7.00;;;24.20;94.20;;;;;;5012723;28;20050;-80
2021/08/01 12:55:08;;;;;;;3.13;2.53;;;24.20;96.20;;;;;;5013945;28;20498;-78
2021/08/01 12:57:35;;;;;;;4.32;2.22;;;24.10;94.10;;;;;;5016046;28;20084;-79
2021/08/01 13:00:11;;;;;;;2.63;2.15;;;23.90;94.20;;;;;;5036484;28;20563;-78
2021/08/01 13:02:39;;;;;;;6.60;3.25;;;24.10;95.40;;;;;;5033428;28;20042;-77
2021/08/01 13:05:06;;;;;;;2.03;1.92;;;23.90;94.90;;;;;;5033139;28;20091;-78